Aeroporto :
LOGIN :

Iscrizione | Disclaimer

   EN    FR    IT 

 










Sommario :    VFR   VFR Marginale   IFR   IFR Intensivo   IFR Molto Intensivo
Visibilità : 
Base nubi : 
>= 8 km
>= 3000ft
5 / 8 km
1000 / 3000 ft
1500m / 5 km
500 / 1000 ft
800 / 1500m
200 / 500 ft
< 800m
< 200 ft
Simboli :   Temporali  Nebbia  Neve Forte  Precipitazioni Forti  Vento > 20 kt
SIGMETs :   Varie  Temporali  Ghiacco  Turbolenza  Onda orograficha  Ceneri Vulcaniche







- Altitudine del aeroporto : 348 ft
- Codice IATA : LDV
- Carte del aeroporto


LFRJ - Landivisiau

ULTIMO METAR :
  • 242230Z AUTO 32008KT 9999 BKN010 BKN016 OVC025 12/11 Q1022

METARs OBSOLETI :
  • 242200Z AUTO 32006KT 290V350 9999 BKN011 BKN017 OVC025 13/11 Q1022
  • 242130Z AUTO 33005KT 9999 FEW012 OVC023 13/10 Q1022
  • 242100Z AUTO 32007KT 9999 FEW012 OVC023 13/11 Q1022
  • 242030Z AUTO 32006KT 290V350 9999 SCT011 BKN019 OVC024 13/11 Q1022
  • 242000Z AUTO 32007KT 9999 SCT012 OVC021 13/11 Q1022

Previsioni scadute.
Nessun NOTAM noto per questo aeroporto.



MetMap, La meteo Aeronautica in un colpo d'occhio ! - Copyright ORBIFLY Dicembre 2007 - Disclaimer

ORBIFLY MET'MAP TEAM :

Programmazione e sviluppo : Alexandra Zaïnal
Concezione e sviluppo : Baudouin d'Aumeries
Co-Programmazione e sviluppo : Marc-Olivier Méhu
Supporto tecnico e logistico : Manuel Goepfert
Aiuto per la traduzione : Arnaldo La Scala

Contatto : metmap@orbifly.com




FONTI E CREDITI :

   NOAA